Map

Track Data

SID SEASON NUMBER BASIN SUBBASIN NAME ISO_TIME NATURE LAT LON WMO_WIND WMO_PRES WMO_AGENCY TRACK_TYPE DIST2LAND LANDFALL IFLAG USA_AGENCY USA_ATCF_ID USA_LAT USA_LON USA_RECORD USA_STATUS USA_WIND USA_PRES USA_SSHS USA_R34_NE USA_R34_SE USA_R34_SW USA_R34_NW USA_R50_NE USA_R50_SE USA_R50_SW USA_R50_NW USA_R64_NE USA_R64_SE USA_R64_SW USA_R64_NW USA_POCI USA_ROCI USA_RMW USA_EYE TOKYO_LAT TOKYO_LON TOKYO_GRADE TOKYO_WIND TOKYO_PRES TOKYO_R50_DIR TOKYO_R50_LONG TOKYO_R50_SHORT TOKYO_R30_DIR TOKYO_R30_LONG TOKYO_R30_SHORT TOKYO_LAND CMA_LAT CMA_LON CMA_CAT CMA_WIND CMA_PRES HKO_LAT HKO_LON HKO_CAT HKO_WIND HKO_PRES NEWDELHI_LAT NEWDELHI_LON NEWDELHI_GRADE NEWDELHI_WIND NEWDELHI_PRES NEWDELHI_CI NEWDELHI_DP NEWDELHI_POCI REUNION_LAT REUNION_LON REUNION_TYPE REUNION_WIND REUNION_PRES REUNION_TNUM REUNION_CI REUNION_RMW REUNION_R34_NE REUNION_R34_SE REUNION_R34_SW REUNION_R34_NW REUNION_R50_NE REUNION_R50_SE REUNION_R50_SW REUNION_R50_NW REUNION_R64_NE REUNION_R64_SE REUNION_R64_SW REUNION_R64_NW BOM_LAT BOM_LON BOM_TYPE BOM_WIND BOM_PRES BOM_TNUM BOM_CI BOM_RMW BOM_R34_NE BOM_R34_SE BOM_R34_SW BOM_R34_NW BOM_R50_NE BOM_R50_SE BOM_R50_SW BOM_R50_NW BOM_R64_NE BOM_R64_SE BOM_R64_SW BOM_R64_NW BOM_ROCI BOM_POCI BOM_EYE BOM_POS_METHOD BOM_PRES_METHOD NADI_LAT NADI_LON NADI_CAT NADI_WIND NADI_PRES WELLINGTON_LAT WELLINGTON_LON WELLINGTON_WIND WELLINGTON_PRES DS824_LAT DS824_LON DS824_STAGE DS824_WIND DS824_PRES TD9636_LAT TD9636_LON TD9636_STAGE TD9636_WIND TD9636_PRES TD9635_LAT TD9635_LON TD9635_WIND TD9635_PRES TD9635_ROCI NEUMANN_LAT NEUMANN_LON NEUMANN_CLASS NEUMANN_WIND NEUMANN_PRES MLC_LAT MLC_LON MLC_CLASS MLC_WIND MLC_PRES USA_GUST BOM_GUST BOM_GUST_PER REUNION_GUST REUNION_GUST_PER USA_SEAHGT USA_SEARAD_NE USA_SEARAD_SE USA_SEARAD_SW USA_SEARAD_NW STORM_SPEED STORM_DIR
1918033S10050 1918 12 SI MM NOT_NAMED 1918-02-02 06:00:00 NR -10.4000 49.7000 reunion main 195 184 _____O________ -1 -10.4000 49.7000 99 9.90000 2 213
1918033S10050 1918 12 SI MM NOT_NAMED 1918-02-02 09:00:00 NR -10.4661 49.6569 main 184 182 _____P________ -1 -10.4661 49.6569 99 2 215
1918033S10050 1918 12 SI MM NOT_NAMED 1918-02-02 12:00:00 NR -10.5342 49.6108 main 182 171 _____P________ -1 -10.5342 49.6108 99 2 216
1918033S10050 1918 12 SI MM NOT_NAMED 1918-02-02 15:00:00 NR -10.6065 49.5586 main 171 158 _____P________ -1 -10.6065 49.5586 99 2 216
1918033S10050 1918 12 SI MM NOT_NAMED 1918-02-02 18:00:00 NR -10.6848 49.4972 main 158 146 _____P________ -1 -10.6848 49.4972 99 2 218
1918033S10050 1918 12 SI MM NOT_NAMED 1918-02-02 21:00:00 NR -10.7713 49.4238 main 146 134 _____P________ -1 -10.7713 49.4238 99 2 220
1918033S10050 1918 12 SI MM NOT_NAMED 1918-02-03 00:00:00 NR -10.8680 49.3351 main 134 123 _____P________ -1 -10.8680 49.3351 99 3 223
1918033S10050 1918 12 SI MM NOT_NAMED 1918-02-03 03:00:00 NR -10.9769 49.2282 main 123 112 _____P________ -1 -10.9769 49.2282 99 3 225
1918033S10050 1918 12 SI MM NOT_NAMED 1918-02-03 06:00:00 NR -11.1000 49.1000 reunion main 112 103 _____O________ -1 -11.1000 49.1000 99 9.90000 4 226
1918033S10050 1918 12 SI MM NOT_NAMED 1918-02-03 09:00:00 NR -11.2387 48.9485 main 105 89 _____P________ -1 -11.2387 48.9485 99 4 227
1918033S10050 1918 12 SI MM NOT_NAMED 1918-02-03 12:00:00 NR -11.3917 48.7760 main 89 86 _____P________ -1 -11.3917 48.7760 99 5 228
1918033S10050 1918 12 SI MM NOT_NAMED 1918-02-03 15:00:00 NR -11.5571 48.5862 main 86 86 _____P________ -1 -11.5571 48.5862 99 5 228
1918033S10050 1918 12 SI MM NOT_NAMED 1918-02-03 18:00:00 NR -11.7327 48.3826 main 93 86 _____P________ -1 -11.7327 48.3826 99 5 229
1918033S10050 1918 12 SI MM NOT_NAMED 1918-02-03 21:00:00 NR -11.9168 48.1686 main 93 93 _____P________ -1 -11.9168 48.1686 99 6 229
1918033S10050 1918 12 SI MM NOT_NAMED 1918-02-04 00:00:00 NR -12.1073 47.9478 main 107 103 _____P________ -1 -12.1073 47.9478 99 6 228
1918033S10050 1918 12 SI MM NOT_NAMED 1918-02-04 03:00:00 NR -12.3024 47.7237 main 121 120 _____P________ -1 -12.3024 47.7237 99 6 228
1918033S10050 1918 12 SI MM NOT_NAMED 1918-02-04 06:00:00 NR -12.5000 47.5000 reunion main 134 126 _____O________ -1 -12.5000 47.5000 99 9.90000 6 228
1918033S10050 1918 12 SI MM NOT_NAMED 1918-02-04 09:00:00 NR -12.6830 47.2900 main 126 124 _____P________ -1 -12.6830 47.2900 99 6 228
1918033S10050 1918 12 SI MM NOT_NAMED 1918-02-04 12:00:00 NR -12.8693 47.0777 main 124 124 _____P________ -1 -12.8693 47.0777 99 6 228
1918033S10050 1918 12 SI MM NOT_NAMED 1918-02-04 15:00:00 NR -13.0597 46.8639 main 127 127 _____P________ -1 -13.0597 46.8639 99 6 227
1918033S10050 1918 12 SI MM NOT_NAMED 1918-02-04 18:00:00 NR -13.2549 46.6494 main 147 147 _____P________ -1 -13.2549 46.6494 99 6 226
1918033S10050 1918 12 SI MM NOT_NAMED 1918-02-04 21:00:00 NR -13.4558 46.4349 main 163 163 _____P________ -1 -13.4558 46.4349 99 6 226
1918033S10050 1918 12 SI MM NOT_NAMED 1918-02-05 00:00:00 NR -13.6630 46.2213 main 178 178 _____P________ -1 -13.6630 46.2213 99 6 224
1918033S10050 1918 12 SI MM NOT_NAMED 1918-02-05 03:00:00 NR -13.8775 46.0094 main 178 169 _____P________ -1 -13.8775 46.0094 99 6 223
1918033S10050 1918 12 SI MM NOT_NAMED 1918-02-05 06:00:00 NR -14.1000 45.8000 reunion main 169 163 _____O________ -1 -14.1000 45.8000 99 9.90000 6 223
1918033S10050 1918 12 SI MM NOT_NAMED 1918-02-05 09:00:00 NR -14.3237 45.5857 main 163 155 _____P________ -1 -14.3237 45.5857 99 6 222
1918033S10050 1918 12 SI MM NOT_NAMED 1918-02-05 12:00:00 NR -14.5550 45.3723 main 147 130 _____P________ -1 -14.5550 45.3723 99 6 221
1918033S10050 1918 12 SI MM NOT_NAMED 1918-02-05 15:00:00 NR -14.7938 45.1615 main 130 112 _____P________ -1 -14.7938 45.1615 99 6 220
1918033S10050 1918 12 SI MM NOT_NAMED 1918-02-05 18:00:00 NR -15.0401 44.9548 main 112 84 _____P________ -1 -15.0401 44.9548 99 6 218
1918033S10050 1918 12 SI MM NOT_NAMED 1918-02-05 21:00:00 NR -15.2938 44.7537 main 84 77 _____P________ -1 -15.2938 44.7537 99 6 216
1918033S10050 1918 12 SI MM NOT_NAMED 1918-02-06 00:00:00 NR -15.5551 44.5598 main 69 55 _____P________ -1 -15.5551 44.5598 99 6 214
1918033S10050 1918 12 SI MM NOT_NAMED 1918-02-06 03:00:00 NR -15.8238 44.3747 main 55 30 _____P________ -1 -15.8238 44.3747 99 6 213
1918033S10050 1918 12 SI MM NOT_NAMED 1918-02-06 06:00:00 NR -16.1000 44.2000 reunion main 30 24 _____O________ -1 -16.1000 44.2000 99 9.90000 6 212
1918033S10050 1918 12 SI MM NOT_NAMED 1918-02-06 09:00:00 NR -16.3680 44.0145 main 42 42 _____P________ -1 -16.3680 44.0145 99 6 213
1918033S10050 1918 12 SI MM NOT_NAMED 1918-02-06 12:00:00 NR -16.6428 43.8367 main 62 54 _____P________ -1 -16.6428 43.8367 99 7 211
1918033S10050 1918 12 SI MM NOT_NAMED 1918-02-06 15:00:00 NR -16.9256 43.6695 main 54 48 _____P________ -1 -16.9256 43.6695 99 7 208
1918033S10050 1918 12 SI MM NOT_NAMED 1918-02-06 18:00:00 NR -17.2176 43.5160 main 54 43 _____P________ -1 -17.2176 43.5160 99 7 205
1918033S10050 1918 12 SI MM NOT_NAMED 1918-02-06 21:00:00 NR -17.5198 43.3792 main 53 53 _____P________ -1 -17.5198 43.3792 99 7 201
1918033S10050 1918 12 SI MM NOT_NAMED 1918-02-07 00:00:00 NR -17.8335 43.2622 main 71 71 _____P________ -1 -17.8335 43.2622 99 7 198
1918033S10050 1918 12 SI MM NOT_NAMED 1918-02-07 03:00:00 NR -18.1599 43.1681 main 84 84 _____P________ -1 -18.1599 43.1681 99 7 193
1918033S10050 1918 12 SI MM NOT_NAMED 1918-02-07 06:00:00 NR -18.5000 43.1000 reunion main 95 95 _____O________ -1 -18.5000 43.1000 99 9.90000 7 191
1918033S10050 1918 12 SI MM NOT_NAMED 1918-02-07 09:00:00 NR -18.8622 43.0323 main 119 119 _____P________ -1 -18.8622 43.0323 99 8 188
1918033S10050 1918 12 SI MM NOT_NAMED 1918-02-07 12:00:00 NR -19.2402 42.9883 main 126 126 _____P________ -1 -19.2402 42.9883 99 8 184
1918033S10050 1918 12 SI MM NOT_NAMED 1918-02-07 15:00:00 NR -19.6297 42.9693 main 137 127 _____P________ -1 -19.6297 42.9693 99 8 181
1918033S10050 1918 12 SI MM NOT_NAMED 1918-02-07 18:00:00 NR -20.0264 42.9767 main 127 103 _____P________ -1 -20.0264 42.9767 99 8 177
1918033S10050 1918 12 SI MM NOT_NAMED 1918-02-07 21:00:00 NR -20.4261 43.0120 main 103 78 _____P________ -1 -20.4261 43.0120 99 8 173
1918033S10050 1918 12 SI MM NOT_NAMED 1918-02-08 00:00:00 NR -20.8245 43.0766 main 78 38 _____P________ -1 -20.8245 43.0766 99 8 169
1918033S10050 1918 12 SI MM NOT_NAMED 1918-02-08 03:00:00 NR -21.2172 43.1721 main 38 20 _____P________ -1 -21.2172 43.1721 99 8 165
1918033S10050 1918 12 SI MM NOT_NAMED 1918-02-08 06:00:00 NR -21.6000 43.3000 reunion main 20 0 _____O________ -1 -21.6000 43.3000 99 9.90000 8 160
1918033S10050 1918 12 SI MM NOT_NAMED 1918-02-08 09:00:00 NR -21.9794 43.4626 main 0 0 _____P________ -1 -21.9794 43.4626 99 8 156
1918033S10050 1918 12 SI MM NOT_NAMED 1918-02-08 12:00:00 NR -22.3532 43.6620 main 0 0 _____P________ -1 -22.3532 43.6620 99 8 152
1918033S10050 1918 12 SI MM NOT_NAMED 1918-02-08 15:00:00 NR -22.7182 43.8907 main 0 0 _____P________ -1 -22.7182 43.8907 99 8 148
1918033S10050 1918 12 SI MM NOT_NAMED 1918-02-08 18:00:00 NR -23.0712 44.1409 main 0 0 _____P________ -1 -23.0712 44.1409 99 8 146
1918033S10050 1918 12 SI MM NOT_NAMED 1918-02-08 21:00:00 NR -23.4089 44.4049 main 0 0 _____P________ -1 -23.4089 44.4049 99 8 143
1918033S10050 1918 12 SI MM NOT_NAMED 1918-02-09 00:00:00 NR -23.7284 44.6748 main 0 0 _____P________ -1 -23.7284 44.6748 99 8 141
1918033S10050 1918 12 SI MM NOT_NAMED 1918-02-09 03:00:00 NR -24.0264 44.9426 main 0 0 _____P________ -1 -24.0264 44.9426 99 7 140
1918033S10050 1918 12 SI MM NOT_NAMED 1918-02-09 06:00:00 NR -24.3000 45.2000 reunion main 0 0 _____O________ -1 -24.3000 45.2000 99 9.90000 7 141
1918033S10050 1918 12 SI MM NOT_NAMED 1918-02-09 09:00:00 NR -24.5602 45.4243 main 0 0 _____P________ -1 -24.5602 45.4243 99 6 141
1918033S10050 1918 12 SI MM NOT_NAMED 1918-02-09 12:00:00 NR -24.7974 45.6432 main 0 0 _____P________ -1 -24.7974 45.6432 99 6 139
1918033S10050 1918 12 SI MM NOT_NAMED 1918-02-09 15:00:00 NR -25.0126 45.8557 main 0 0 _____P________ -1 -25.0126 45.8557 99 6 137
1918033S10050 1918 12 SI MM NOT_NAMED 1918-02-09 18:00:00 NR -25.2070 46.0613 main 0 0 _____P________ -1 -25.2070 46.0613 99 5 135
1918033S10050 1918 12 SI MM NOT_NAMED 1918-02-09 21:00:00 NR -25.3818 46.2593 main 24 24 _____P________ -1 -25.3818 46.2593 99 5 133
1918033S10050 1918 12 SI MM NOT_NAMED 1918-02-10 00:00:00 NR -25.5382 46.4488 main 39 34 _____P________ -1 -25.5382 46.4488 99 4 131
1918033S10050 1918 12 SI MM NOT_NAMED 1918-02-10 03:00:00 NR -25.6772 46.6293 main 55 55 _____P________ -1 -25.6772 46.6293 99 4 130
1918033S10050 1918 12 SI MM NOT_NAMED 1918-02-10 06:00:00 NR -25.8000 46.8000 reunion main 67 67 _____O________ -1 -25.8000 46.8000 99 9.90000 4 128
1918033S10050 1918 12 SI MM NOT_NAMED 1918-02-10 09:00:00 NR -25.9079 46.9606 main 80 80 _____P________ -1 -25.9079 46.9606 99 3 126
1918033S10050 1918 12 SI MM NOT_NAMED 1918-02-10 12:00:00 NR -26.0027 47.1119 main 94 94 _____P________ -1 -26.0027 47.1119 99 3 124
1918033S10050 1918 12 SI MM NOT_NAMED 1918-02-10 15:00:00 NR -26.0862 47.2553 main 112 112 _____P________ -1 -26.0862 47.2553 99 3 122
1918033S10050 1918 12 SI MM NOT_NAMED 1918-02-10 18:00:00 NR -26.1603 47.3922 main 126 126 _____P________ -1 -26.1603 47.3922 99 3 120
1918033S10050 1918 12 SI MM NOT_NAMED 1918-02-10 21:00:00 NR -26.2269 47.5237 main 131 131 _____P________ -1 -26.2269 47.5237 99 3 119
1918033S10050 1918 12 SI MM NOT_NAMED 1918-02-11 00:00:00 NR -26.2878 47.6513 main 151 151 _____P________ -1 -26.2878 47.6513 99 3 117
1918033S10050 1918 12 SI MM NOT_NAMED 1918-02-11 03:00:00 NR -26.3449 47.7763 main 156 156 _____P________ -1 -26.3449 47.7763 99 2 117
1918033S10050 1918 12 SI MM NOT_NAMED 1918-02-11 06:00:00 NR -26.4000 47.9000 reunion main 170 _____O________ -1 -26.4000 47.9000 99 9.90000 2 116

About IBTrACS Database

This database is a web-friendly format of International Best Track Archive for Climate Stewardship (IBTrACS), a global best track data archive curated by NOAA dating back to 1842.

Updated: 2021-11-26